Time;durP1;ratioP1;P1;durP2;ratioP2;P2;SDS_P1;SDS_P2;PMS_P1;PMS_P2;Temp;Humidity;BMP_temperature;BMP_pressure;BME280_temperature;BME280_humidity;BME280_pressure;Samples;Min_cycle;Max_cycle;Signal;HPM_P1;HPM_P2
2023/04/26 00:02:22;;;;;;;;;;;;;;;10.39;42.00;99624.16;5094647;28;20318;-63
2023/04/26 00:04:54;;;;;;;;;;;;;;;10.37;42.39;99620.88;5094159;28;19912;-64
2023/04/26 00:07:19;;;;;;;;;;;;;;;10.41;41.81;99620.22;5093983;28;20249;-64
2023/04/26 00:09:44;;;;;;;;;;;;;;;10.37;42.34;99618.19;5093684;28;19912;-64
2023/04/26 00:12:10;;;;;;;;;;;;;;;10.43;42.72;99618.13;5094436;28;20010;-63
2023/04/26 00:14:36;;;;;;;;;;;;;;;10.47;44.04;99618.53;5095104;28;19919;-64
2023/04/26 00:17:03;;;;;;;;;;;;;;;10.46;43.23;99622.28;5094510;28;20252;-64
2023/04/26 00:19:28;;;;;;;;;;;;;;;10.47;43.43;99623.91;5092226;28;19919;-64
2023/04/26 00:21:53;;;;;;;;;;;;;;;10.40;42.20;99620.41;5092692;28;19916;-64
2023/04/26 00:24:19;;;;;;;;;;;;;;;10.42;42.23;99621.88;5093833;28;19950;-63
2023/04/26 00:26:45;;;;;;;;;;;;;;;10.36;41.99;99620.00;5093187;28;19912;-63
2023/04/26 00:29:10;;;;;;;;;;;;;;;10.28;40.89;99623.75;5093378;28;19934;-64
2023/04/26 00:31:35;;;;;;;;;;;;;;;10.07;41.58;99618.66;5093529;28;19912;-63
2023/04/26 00:34:01;;;;;;;;;;;;;;;10.07;40.59;99619.50;5093892;28;19963;-64
2023/04/26 00:36:26;;;;;;;;;;;;;;;10.06;41.38;99631.25;5092998;28;20058;-64
2023/04/26 00:38:51;;;;;;;;;;;;;;;10.17;42.54;99629.75;5093713;28;19932;-64
2023/04/26 00:41:17;;;;;;;;;;;;;;;10.19;42.95;99626.88;5093523;28;19919;-63
2023/04/26 00:43:42;;;;;;;;;;;;;;;10.24;42.25;99624.38;5093200;28;19944;-64
2023/04/26 00:46:08;;;;;;;;;;;;;;;10.25;42.07;99621.50;5093592;28;19948;-64
2023/04/26 00:48:35;;;;;;;;;;;;;;;10.27;42.33;99630.16;5093148;28;20509;-63
2023/04/26 00:51:00;;;;;;;;;;;;;;;10.25;42.28;99634.06;5093177;28;19913;-64
2023/04/26 00:53:25;;;;;;;;;;;;;;;10.26;41.65;99641.09;5092798;28;19935;-64
2023/04/26 00:55:51;;;;;;;;;;;;;;;10.21;41.28;99627.50;5092679;28;20491;-64
2023/04/26 00:58:19;;;;;;;;;;;;;;;9.84;41.89;99566.34;5093330;28;19919;-64
2023/04/26 01:00:45;;;;;;;;;;;;;;;10.28;42.77;99629.09;5092134;28;19994;-62
2023/04/26 01:03:10;;;;;;;;;;;;;;;10.23;41.40;99630.78;5093615;28;19955;-64
2023/04/26 01:05:36;;;;;;;;;;;;;;;10.26;41.17;99631.19;5093811;28;19919;-63
2023/04/26 01:08:03;;;;;;;;;;;;;;;10.20;41.94;99629.34;5094011;28;19926;-64
2023/04/26 01:10:30;;;;;;;;;;;;;;;10.21;42.98;99630.97;5093060;28;19916;-63
2023/04/26 01:12:56;;;;;;;;;;;;;;;10.16;40.90;99628.13;5094278;28;20423;-63
2023/04/26 01:15:22;;;;;;;;;;;;;;;10.14;41.58;99632.91;5092609;28;19966;-63
2023/04/26 01:17:48;;;;;;;;;;;;;;;10.21;41.99;99630.97;5093525;28;19955;-63
2023/04/26 01:20:13;;;;;;;;;;;;;;;10.17;41.85;99631.63;5093806;28;19943;-63
2023/04/26 01:22:39;;;;;;;;;;;;;;;10.12;41.93;99632.25;5097838;28;20261;-63
2023/04/26 01:25:06;;;;;;;;;;;;;;;10.11;41.71;99633.31;5098478;28;19977;-63
2023/04/26 01:27:31;;;;;;;;;;;;;;;9.97;40.72;99635.19;5095941;28;20326;-63
2023/04/26 01:29:57;;;;;;;;;;;;;;;10.04;41.42;99630.63;5096861;28;20053;-62
2023/04/26 01:32:22;;;;;;;;;;;;;;;10.06;41.28;99633.09;5096973;28;19919;-62
2023/04/26 01:34:47;;;;;;;;;;;;;;;9.96;41.33;99630.06;5096781;28;20399;-62
2023/04/26 01:37:13;;;;;;;;;;;;;;;9.98;40.91;99638.72;5097118;28;19916;-63
2023/04/26 01:39:38;;;;;;;;;;;;;;;9.89;40.84;99633.56;5096849;28;20292;-63
2023/04/26 01:42:04;;;;;;;;;;;;;;;9.92;40.95;99629.66;5095816;28;19916;-63
2023/04/26 01:44:29;;;;;;;;;;;;;;;9.89;40.62;99625.50;5097582;28;19969;-63
2023/04/26 01:46:56;;;;;;;;;;;;;;;9.86;41.49;99627.78;5096005;28;19927;-62
2023/04/26 01:49:21;;;;;;;;;;;;;;;9.99;42.71;99626.94;5095859;28;19916;-62
2023/04/26 01:51:47;;;;;;;;;;;;;;;9.96;40.88;99630.88;5078500;28;19912;-62
2023/04/26 01:54:12;;;;;;;;;;;;;;;9.97;42.23;99631.69;5097288;28;19989;-65
2023/04/26 01:56:37;;;;;;;;;;;;;;;9.91;41.53;99632.53;5096793;28;20304;-63
2023/04/26 01:59:03;;;;;;;;;;;;;;;9.95;41.18;99633.75;5096311;28;19916;-63
2023/04/26 02:01:28;;;;;;;;;;;;;;;9.95;41.51;99633.75;5096596;28;19916;-63
2023/04/26 02:03:53;;;;;;;;;;;;;;;9.99;41.11;99643.03;5097161;28;19982;-63
2023/04/26 02:06:19;;;;;;;;;;;;;;;9.98;42.22;99627.97;5079083;28;20006;-63
2023/04/26 02:08:44;;;;;;;;;;;;;;;9.97;42.31;99637.06;5097714;28;19919;-63
2023/04/26 02:11:10;;;;;;;;;;;;;;;9.95;40.43;99641.81;5097720;28;19925;-64
2023/04/26 02:13:36;;;;;;;;;;;;;;;10.00;41.21;99636.63;5097486;28;19920;-63
2023/04/26 02:16:02;;;;;;;;;;;;;;;9.98;42.34;99641.38;5097567;28;19924;-64
2023/04/26 02:18:28;;;;;;;;;;;;;;;9.98;41.90;99641.38;5096296;28;19915;-62
2023/04/26 02:20:54;;;;;;;;;;;;;;;9.96;40.43;99643.47;5094456;28;20618;-62
2023/04/26 02:23:19;;;;;;;;;;;;;;;10.01;40.36;99641.81;5095589;28;19912;-63
2023/04/26 02:25:46;;;;;;;;;;;;;;;10.04;41.08;99640.53;5096776;28;19920;-62
2023/04/26 02:28:11;;;;;;;;;;;;;;;9.99;40.37;99649.25;5097321;28;19912;-64
2023/04/26 02:30:37;;;;;;;;;;;;;;;9.86;40.89;99639.34;5098898;28;19976;-63
2023/04/26 02:33:02;;;;;;;;;;;;;;;9.87;40.85;99632.94;5095284;28;19920;-64
2023/04/26 02:35:27;;;;;;;;;;;;;;;9.95;40.60;99634.56;5097000;28;19916;-64
2023/04/26 02:37:53;;;;;;;;;;;;;;;9.88;39.64;99631.09;5096719;28;20048;-63
2023/04/26 02:40:18;;;;;;;;;;;;;;;9.98;41.05;99641.38;5096183;28;20363;-63
2023/04/26 02:42:44;;;;;;;;;;;;;;;9.95;40.32;99637.25;5095275;28;20377;-63
2023/04/26 02:45:10;;;;;;;;;;;;;;;9.99;40.68;99633.16;5095364;28;19912;-64
2023/04/26 02:47:35;;;;;;;;;;;;;;;9.93;40.92;99641.19;5096267;28;19998;-63
2023/04/26 02:50:01;;;;;;;;;;;;;;;9.91;41.02;99629.84;5094250;28;19912;-62
2023/04/26 02:52:26;;;;;;;;;;;;;;;9.97;39.96;99642.41;5095786;28;20361;-62
2023/04/26 02:54:52;;;;;;;;;;;;;;;9.94;39.92;99641.00;5095920;28;19937;-63
2023/04/26 02:57:17;;;;;;;;;;;;;;;9.95;41.55;99634.56;5095294;28;19923;-64
2023/04/26 02:59:42;;;;;;;;;;;;;;;9.98;41.89;99636.84;5095154;28;20011;-64
2023/04/26 03:02:08;;;;;;;;;;;;;;;9.93;41.38;99644.69;5094916;28;19912;-64
2023/04/26 03:04:34;;;;;;;;;;;;;;;9.99;40.39;99637.66;5094800;28;20416;-63
2023/04/26 03:07:00;;;;;;;;;;;;;;;10.01;40.42;99643.63;5094113;28;19912;-63
2023/04/26 03:09:26;;;;;;;;;;;;;;;10.04;41.37;99637.84;5093891;28;20439;-62
2023/04/26 03:11:51;;;;;;;;;;;;;;;9.98;40.04;99641.38;5093870;28;20358;-63
2023/04/26 03:14:16;;;;;;;;;;;;;;;10.03;41.00;99646.97;5092758;28;19924;-62
2023/04/26 03:16:43;;;;;;;;;;;;;;;10.04;41.26;99645.91;5094061;28;20011;-64
2023/04/26 03:19:08;;;;;;;;;;;;;;;9.78;38.95;99638.75;5093188;28;20046;-64
2023/04/26 03:21:34;;;;;;;;;;;;;;;9.82;39.46;99637.28;5058688;28;19938;-64
2023/04/26 03:24:00;;;;;;;;;;;;;;;9.77;39.29;99634.41;5093707;28;19912;-61
2023/04/26 03:26:25;;;;;;;;;;;;;;;9.78;41.04;99633.38;5093847;28;19934;-63
2023/04/26 03:28:50;;;;;;;;;;;;;;;9.80;41.02;99640.16;5093548;28;20307;-63
2023/04/26 03:31:16;;;;;;;;;;;;;;;9.80;40.48;99636.69;5093578;28;19919;-63
2023/04/26 03:33:41;;;;;;;;;;;;;;;9.71;40.50;99633.38;5094914;28;20256;-63
2023/04/26 03:36:06;;;;;;;;;;;;;;;9.77;41.71;99640.59;5095001;28;19916;-63
2023/04/26 03:38:32;;;;;;;;;;;;;;;9.85;40.99;99642.25;5095465;28;19927;-62
2023/04/26 03:40:57;;;;;;;;;;;;;;;9.75;40.04;99636.47;5094832;28;19955;-62
2023/04/26 03:43:22;;;;;;;;;;;;;;;9.83;41.19;99634.41;5094484;28;19912;-63
2023/04/26 03:45:48;;;;;;;;;;;;;;;9.90;40.43;99637.09;5094840;28;19915;-63
2023/04/26 03:48:13;;;;;;;;;;;;;;;9.88;39.80;99634.59;5092716;28;19915;-63
2023/04/26 03:50:38;;;;;;;;;;;;;;;9.89;40.95;99638.91;5092698;28;19967;-63
2023/04/26 03:53:04;;;;;;;;;;;;;;;9.94;40.71;99635.63;5094164;28;20006;-63
2023/04/26 03:55:29;;;;;;;;;;;;;;;9.88;40.70;99641.84;5094123;28;19916;-63
2023/04/26 03:57:54;;;;;;;;;;;;;;;9.84;39.98;99637.91;5094323;28;20416;-63
2023/04/26 04:00:20;;;;;;;;;;;;;;;9.88;40.10;99648.00;5094639;28;19913;-64
2023/04/26 04:02:45;;;;;;;;;;;;;;;9.89;39.43;99635.41;5094274;28;19912;-64
2023/04/26 04:05:10;;;;;;;;;;;;;;;9.78;40.41;99642.25;5093605;28;19964;-64
2023/04/26 04:07:36;;;;;;;;;;;;;;;9.86;40.88;99641.19;5093737;28;19993;-63
2023/04/26 04:10:01;;;;;;;;;;;;;;;9.85;41.61;99648.41;5093986;28;20387;-63
2023/04/26 04:12:26;;;;;;;;;;;;;;;9.74;40.61;99642.88;5093812;28;19989;-63
2023/04/26 04:14:53;;;;;;;;;;;;;;;9.74;41.00;99642.88;5094108;28;19926;-63
2023/04/26 04:17:18;;;;;;;;;;;;;;;9.78;40.19;99646.78;5093833;28;19916;-63
2023/04/26 04:19:46;;;;;;;;;;;;;;;9.77;39.86;99647.81;5093608;28;19916;-63
2023/04/26 04:22:11;;;;;;;;;;;;;;;9.80;40.35;99648.22;5093390;28;19919;-62
2023/04/26 04:24:36;;;;;;;;;;;;;;;9.91;40.84;99646.75;5094219;28;19916;-62
2023/04/26 04:27:02;;;;;;;;;;;;;;;9.53;39.38;99651.94;5093215;28;19920;-62
2023/04/26 04:29:27;;;;;;;;;;;;;;;9.79;41.06;99654.63;5092666;28;20326;-64
2023/04/26 04:31:53;;;;;;;;;;;;;;;9.75;40.31;99647.19;5094236;28;19919;-63
2023/04/26 04:34:18;;;;;;;;;;;;;;;9.83;39.78;99658.53;5094654;28;19955;-63
2023/04/26 04:36:44;;;;;;;;;;;;;;;9.93;39.89;99654.59;5094696;28;20010;-64
2023/04/26 04:39:14;;;;;;;;;;;;;;;9.87;39.75;99659.75;5094108;28;19912;-63
2023/04/26 04:41:46;;;;;;;;;;;;;;;9.93;40.31;99657.28;5093996;28;19923;-62
2023/04/26 04:44:12;;;;;;;;;;;;;;;10.00;40.61;99661.59;5094518;28;19912;-64
2023/04/26 04:46:37;;;;;;;;;;;;;;;10.00;39.73;99661.59;5094803;28;20311;-63
2023/04/26 04:49:02;;;;;;;;;;;;;;;10.02;39.73;99661.41;5094576;28;19912;-64
2023/04/26 04:51:27;;;;;;;;;;;;;;;9.96;39.28;99665.75;5094266;28;19938;-64
2023/04/26 04:53:53;;;;;;;;;;;;;;;9.99;39.79;99676.06;5094028;28;19916;-63
2023/04/26 04:56:18;;;;;;;;;;;;;;;10.17;40.68;99677.25;5096890;28;20280;-63
2023/04/26 04:58:43;;;;;;;;;;;;;;;10.23;39.02;99676.41;5096694;28;20501;-62
2023/04/26 05:01:09;;;;;;;;;;;;;;;10.33;40.45;99671.47;5098617;28;19919;-63
2023/04/26 05:03:34;;;;;;;;;;;;;;;10.38;39.97;99671.66;5098124;28;19958;-63
2023/04/26 05:06:00;;;;;;;;;;;;;;;10.41;39.92;99678.44;5097193;28;20378;-64
2023/04/26 05:08:25;;;;;;;;;;;;;;;10.32;38.39;99671.66;5097024;28;19912;-63
2023/04/26 05:10:52;;;;;;;;;;;;;;;10.35;38.75;99674.75;5079040;28;19912;-63
2023/04/26 05:13:17;;;;;;;;;;;;;;;10.38;40.00;99674.34;5097161;28;20424;-63
2023/04/26 05:15:42;;;;;;;;;;;;;;;10.43;38.88;99671.81;5097141;28;19955;-63
2023/04/26 05:18:08;;;;;;;;;;;;;;;10.52;39.17;99679.66;5097650;28;19912;-63
2023/04/26 05:20:33;;;;;;;;;;;;;;;10.59;38.74;99675.91;5095041;28;19939;-63
2023/04/26 05:22:58;;;;;;;;;;;;;;;10.60;40.25;99680.22;5097153;28;20021;-63
2023/04/26 05:25:23;;;;;;;;;;;;;;;10.45;38.34;99685.03;5096803;28;19981;-64
2023/04/26 05:27:49;;;;;;;;;;;;;;;10.54;38.71;99689.13;5096890;28;19916;-63
2023/04/26 05:30:15;;;;;;;;;;;;;;;10.58;38.79;99676.91;5098724;28;19940;-63
2023/04/26 05:32:41;;;;;;;;;;;;;;;10.59;38.27;99685.81;5098527;28;19912;-64
2023/04/26 05:35:07;;;;;;;;;;;;;;;10.69;39.31;99685.34;5096198;28;19912;-64
2023/04/26 05:37:33;;;;;;;;;;;;;;;10.81;38.17;99691.72;5097074;28;19927;-65
2023/04/26 05:39:58;;;;;;;;;;;;;;;10.85;37.48;99691.06;5097271;28;19916;-65
2023/04/26 05:42:24;;;;;;;;;;;;;;;10.80;38.64;99688.19;5096727;28;19916;-63
2023/04/26 05:44:49;;;;;;;;;;;;;;;10.90;38.60;99690.44;5095405;28;19942;-63
2023/04/26 05:47:14;;;;;;;;;;;;;;;11.06;37.80;99690.94;5099168;28;20317;-63
2023/04/26 05:49:40;;;;;;;;;;;;;;;11.14;38.05;99683.44;5098342;28;20021;-64
2023/04/26 05:52:05;;;;;;;;;;;;;;;11.11;37.89;99683.88;5097092;28;19943;-64
2023/04/26 05:54:30;;;;;;;;;;;;;;;11.37;39.45;99682.88;5095474;28;19912;-63
2023/04/26 05:56:56;;;;;;;;;;;;;;;11.42;38.51;99691.13;5096382;28;20249;-63
2023/04/26 05:59:21;;;;;;;;;;;;;;;11.46;38.84;99691.50;5096619;28;19923;-63
2023/04/26 06:01:46;;;;;;;;;;;;;;;11.37;36.37;99687.44;5096595;28;19912;-63
2023/04/26 06:04:12;;;;;;;;;;;;;;;11.34;36.78;99685.19;5096321;28;19916;-63
2023/04/26 06:06:37;;;;;;;;;;;;;;;11.32;36.88;99696.16;5096411;28;19919;-63
2023/04/26 06:09:03;;;;;;;;;;;;;;;11.39;38.30;99686.19;5096996;28;20345;-63
2023/04/26 06:11:28;;;;;;;;;;;;;;;11.46;37.59;99694.19;5096432;28;19912;-64
2023/04/26 06:13:54;;;;;;;;;;;;;;;11.39;37.88;99696.13;5096437;28;19924;-63
2023/04/26 06:16:20;;;;;;;;;;;;;;;11.55;37.86;99689.34;5096267;28;19924;-64
2023/04/26 06:18:50;;;;;;;;;;;;;;;11.60;35.67;99689.53;5094801;28;19912;-63
2023/04/26 06:21:15;;;;;;;;;;;;;;;11.76;37.14;99699.75;5095034;28;19912;-63
2023/04/26 06:23:40;;;;;;;;;;;;;;;11.92;36.48;99687.63;5096104;28;19958;-64
2023/04/26 06:26:05;;;;;;;;;;;;;;;11.98;36.61;99694.00;5095554;28;19951;-64
2023/04/26 06:28:31;;;;;;;;;;;;;;;12.13;36.97;99693.66;5094568;28;20001;-64
2023/04/26 06:30:57;;;;;;;;;;;;;;;12.27;36.83;99699.69;5095062;28;19912;-63
2023/04/26 06:33:22;;;;;;;;;;;;;;;12.02;36.04;99692.50;5094733;28;19923;-65
2023/04/26 06:35:47;;;;;;;;;;;;;;;11.95;35.06;99691.75;5093393;28;19962;-65
2023/04/26 06:38:12;;;;;;;;;;;;;;;11.90;35.29;99702.34;5095108;28;19994;-63
2023/04/26 06:40:38;;;;;;;;;;;;;;;12.00;35.95;99702.66;5095559;28;19912;-62
2023/04/26 06:43:03;;;;;;;;;;;;;;;12.09;36.40;99705.88;5096003;28;19947;-61
2023/04/26 06:45:28;;;;;;;;;;;;;;;12.15;34.78;99713.91;5095259;28;19927;-61
2023/04/26 06:47:54;;;;;;;;;;;;;;;12.17;35.30;99708.28;5095310;28;20368;-61
2023/04/26 06:50:19;;;;;;;;;;;;;;;12.34;36.97;99706.66;5094243;28;20289;-62
2023/04/26 06:52:44;;;;;;;;;;;;;;;12.45;35.18;99707.78;5094356;28;20011;-63
2023/04/26 06:55:10;;;;;;;;;;;;;;;12.49;34.39;99718.94;5094324;28;19912;-63
2023/04/26 06:57:35;;;;;;;;;;;;;;;12.43;33.75;99707.19;5094111;28;19981;-63
2023/04/26 07:00:02;;;;;;;;;;;;;;;12.33;34.18;99702.34;5093862;28;19912;-63
2023/04/26 07:02:27;;;;;;;;;;;;;;;12.46;35.30;99703.22;5094012;28;19918;-62
2023/04/26 07:04:53;;;;;;;;;;;;;;;12.57;35.30;99699.75;5094162;28;19912;-63
2023/04/26 07:07:18;;;;;;;;;;;;;;;12.51;34.44;99704.19;5094644;28;19912;-64
2023/04/26 07:09:43;;;;;;;;;;;;;;;12.22;32.94;99713.00;5094211;28;19966;-63
2023/04/26 07:12:12;;;;;;;;;;;;;;;12.29;35.03;99709.19;5097130;28;19923;-62
2023/04/26 07:14:42;;;;;;;;;;;;;;;12.03;32.83;99729.13;5096700;28;19964;-63
2023/04/26 07:17:07;;;;;;;;;;;;;;;12.15;35.49;99719.28;5095781;28;20010;-62
2023/04/26 07:19:33;;;;;;;;;;;;;;;12.31;34.93;99720.59;5092231;28;19962;-62
2023/04/26 07:21:58;;;;;;;;;;;;;;;12.36;34.26;99722.59;5095435;28;19999;-62
2023/04/26 07:24:23;;;;;;;;;;;;;;;12.47;34.50;99729.91;5095649;28;19923;-62
2023/04/26 07:26:48;;;;;;;;;;;;;;;12.68;34.81;99725.13;5095001;28;20400;-63
2023/04/26 07:29:14;;;;;;;;;;;;;;;12.43;34.40;99730.59;5095592;28;19919;-67
2023/04/26 07:31:40;;;;;;;;;;;;;;;12.69;34.43;99729.47;5093643;28;19912;-62
2023/04/26 07:34:05;;;;;;;;;;;;;;;12.85;35.51;99736.94;5095331;28;20015;-62
2023/04/26 07:36:31;;;;;;;;;;;;;;;13.04;36.34;99732.34;5095074;28;19916;-63
2023/04/26 07:38:56;;;;;;;;;;;;;;;12.96;33.03;99725.41;5094593;28;19912;-63
2023/04/26 07:41:22;;;;;;;;;;;;;;;13.17;34.88;99736.75;5092918;28;20333;-63
2023/04/26 07:43:47;;;;;;;;;;;;;;;13.29;34.42;99736.78;5094510;28;19913;-63
2023/04/26 07:46:12;;;;;;;;;;;;;;;13.41;33.14;99744.91;5094288;28;19912;-63
2023/04/26 07:48:38;;;;;;;;;;;;;;;13.28;33.62;99738.66;5094727;28;19954;-63
2023/04/26 07:51:10;;;;;;;;;;;;;;;13.12;32.93;99740.09;5093876;28;20291;-63
2023/04/26 07:53:35;;;;;;;;;;;;;;;13.26;33.03;99740.75;5094231;28;19928;-63
2023/04/26 07:56:03;;;;;;;;;;;;;;;13.44;33.76;99742.59;5093409;28;19969;-62
2023/04/26 07:58:28;;;;;;;;;;;;;;;13.42;32.42;99738.50;5093988;28;19991;-62
2023/04/26 08:00:54;;;;;;;;;;;;;;;13.55;33.12;99740.97;5093475;28;20552;-62
2023/04/26 08:03:19;;;;;;;;;;;;;;;13.51;33.92;99739.81;5094010;28;19915;-63
2023/04/26 08:05:45;;;;;;;;;;;;;;;13.30;31.88;99741.13;5092954;28;20368;-62
2023/04/26 08:08:11;;;;;;;;;;;;;;;13.24;32.11;99740.16;5093898;28;20349;-62
2023/04/26 08:10:39;;;;;;;;;;;;;;;13.20;33.37;99743.53;5094484;28;19919;-63
2023/04/26 08:13:04;;;;;;;;;;;;;;;13.23;32.81;99735.00;5093925;28;19993;-62
2023/04/26 08:15:31;;;;;;;;;;;;;;;13.08;31.33;99732.72;5094304;28;19916;-62
2023/04/26 08:17:56;;;;;;;;;;;;;;;13.38;31.86;99745.41;5094370;28;19966;-63
2023/04/26 08:20:22;;;;;;;;;;;;;;;13.02;32.32;99741.69;5094015;28;19916;-63
2023/04/26 08:22:47;;;;;;;;;;;;;;;13.28;33.21;99746.75;5093544;28;19912;-63
2023/04/26 08:25:13;;;;;;;;;;;;;;;13.42;32.75;99746.56;5093519;28;19912;-63
2023/04/26 08:27:39;;;;;;;;;;;;;;;13.61;33.05;99752.72;5093644;28;19916;-62
2023/04/26 08:30:05;;;;;;;;;;;;;;;13.53;33.10;99743.09;5092560;28;19923;-62
2023/04/26 08:32:30;;;;;;;;;;;;;;;13.79;33.54;99738.34;5093097;28;19947;-63
2023/04/26 08:34:55;;;;;;;;;;;;;;;13.77;32.07;99741.25;5093838;28;20008;-62
2023/04/26 08:37:21;;;;;;;;;;;;;;;13.73;31.00;99740.09;5093355;28;19916;-62
2023/04/26 08:39:46;;;;;;;;;;;;;;;13.53;32.04;99748.47;5093479;28;19912;-63
2023/04/26 08:42:15;;;;;;;;;;;;;;;13.58;32.46;99745.06;5092389;28;19920;-62
2023/04/26 08:44:40;;;;;;;;;;;;;;;13.78;32.35;99740.22;5092262;28;19916;-62
2023/04/26 08:47:08;;;;;;;;;;;;;;;13.82;32.72;99737.84;5094487;28;19912;-63
2023/04/26 08:49:41;;;;;;;;;;;;;;;13.46;31.26;99751.28;5093822;28;19988;-62
2023/04/26 08:52:07;;;;;;;;;;;;;;;13.78;31.49;99755.56;5093584;28;19912;-62
2023/04/26 08:54:33;;;;;;;;;;;;;;;13.64;32.58;99753.09;5093428;28;19995;-62
2023/04/26 08:56:59;;;;;;;;;;;;;;;13.29;31.74;99748.38;5094668;28;19916;-63
2023/04/26 08:59:25;;;;;;;;;;;;;;;13.45;32.79;99767.72;5095750;28;19916;-64
2023/04/26 09:01:52;;;;;;;;;;;;;;;13.57;31.21;99765.84;5095704;28;19912;-64
2023/04/26 09:04:17;;;;;;;;;;;;;;;13.48;31.55;99764.53;5094815;28;19919;-63
2023/04/26 09:06:43;;;;;;;;;;;;;;;13.57;31.06;99762.34;5093996;28;20278;-62
2023/04/26 09:09:10;;;;;;;;;;;;;;;13.57;31.27;99765.03;5094088;28;19913;-63
2023/04/26 09:11:54;;;;;;;;;;;;;;;13.65;31.83;99765.53;5093154;28;19923;-63
2023/04/26 09:14:19;;;;;;;;;;;;;;;13.63;31.67;99764.09;5092907;28;20352;-63
2023/04/26 09:16:44;;;;;;;;;;;;;;;13.55;32.29;99767.97;5093986;28;19923;-63
2023/04/26 09:19:10;;;;;;;;;;;;;;;13.61;30.21;99764.31;5093620;28;19920;-63
2023/04/26 09:21:45;;;;;;;;;;;;;;;13.60;30.94;99765.41;5093458;28;19912;-63
2023/04/26 09:24:10;;;;;;;;;;;;;;;13.14;30.92;99750.66;5092497;28;19977;-61
2023/04/26 09:26:36;;;;;;;;;;;;;;;13.32;31.88;99755.22;5093072;28;19912;-64
2023/04/26 09:29:10;;;;;;;;;;;;;;;13.33;30.71;99770.34;5093602;28;19912;-63
2023/04/26 09:31:37;;;;;;;;;;;;;;;13.50;30.31;99768.66;5093252;28;19923;-62
2023/04/26 09:34:02;;;;;;;;;;;;;;;13.84;31.79;99768.97;5093924;28;20272;-62
2023/04/26 09:36:28;;;;;;;;;;;;;;;13.81;28.73;99768.59;5093640;28;19927;-62
2023/04/26 09:38:53;;;;;;;;;;;;;;;13.94;29.55;99771.09;5092022;28;20383;-62
2023/04/26 09:41:18;;;;;;;;;;;;;;;14.44;30.33;99765.22;5094446;28;19939;-63
2023/04/26 09:43:43;;;;;;;;;;;;;;;14.50;30.66;99760.75;5096877;28;19977;-63
2023/04/26 09:46:09;;;;;;;;;;;;;;;14.94;31.96;99768.47;5096875;28;19923;-62
2023/04/26 09:48:34;;;;;;;;;;;;;;;15.26;29.13;99764.22;5096333;28;19916;-62
2023/04/26 09:51:03;;;;;;;;;;;;;;;15.25;28.54;99756.38;5096864;28;20412;-63
2023/04/26 09:53:30;;;;;;;;;;;;;;;15.64;29.59;99760.03;5096727;28;20014;-62
2023/04/26 09:55:56;;;;;;;;;;;;;;;15.50;27.18;99761.41;5096302;28;20384;-62
2023/04/26 09:58:22;;;;;;;;;;;;;;;16.16;30.96;99760.91;5096272;28;19912;-63
2023/04/26 10:00:49;;;;;;;;;;;;;;;15.99;28.47;99764.44;5094550;28;19919;-63
2023/04/26 10:03:16;;;;;;;;;;;;;;;15.83;27.26;99760.66;5096189;28;20311;-63
2023/04/26 10:05:42;;;;;;;;;;;;;;;15.76;29.99;99770.81;5093771;28;19912;-63
2023/04/26 10:08:07;;;;;;;;;;;;;;;15.86;28.54;99754.75;5097092;28;19920;-62
2023/04/26 10:10:33;;;;;;;;;;;;;;;15.81;28.03;99767.38;5096440;28;19927;-62
2023/04/26 10:12:58;;;;;;;;;;;;;;;16.00;28.34;99766.06;5094823;28;20014;-62
2023/04/26 10:15:25;;;;;;;;;;;;;;;15.96;28.69;99764.91;5096414;28;19950;-62
2023/04/26 10:17:50;;;;;;;;;;;;;;;15.96;27.32;99766.81;5095608;28;19951;-63
2023/04/26 10:20:17;;;;;;;;;;;;;;;16.12;26.95;99774.13;5095417;28;19947;-63
2023/04/26 10:22:44;;;;;;;;;;;;;;;16.19;26.38;99780.16;5096164;28;19969;-63
2023/04/26 10:25:09;;;;;;;;;;;;;;;16.37;27.68;99779.09;5095948;28;20060;-64
2023/04/26 10:27:44;;;;;;;;;;;;;;;16.27;26.48;99773.53;5094613;28;19912;-63
2023/04/26 10:30:13;;;;;;;;;;;;;;;16.06;26.94;99762.38;5096061;28;19998;-62
2023/04/26 10:32:50;;;;;;;;;;;;;;;16.01;26.10;99773.13;5094160;28;20469;-62
2023/04/26 10:35:17;;;;;;;;;;;;;;;16.52;28.71;99767.66;5093345;28;19912;-62
2023/04/26 10:37:58;;;;;;;;;;;;;;;16.28;26.48;99685.75;5094952;28;19916;-63
2023/04/26 10:40:33;;;;;;;;;;;;;;;17.16;25.64;99771.72;5095455;28;19991;-63
2023/04/26 10:43:08;;;;;;;;;;;;;;;17.39;27.49;99776.84;5095769;28;19962;-63
2023/04/26 10:45:34;;;;;;;;;;;;;;;17.34;29.05;99767.84;5095410;28;20277;-63
2023/04/26 10:48:12;;;;;;;;;;;;;;;17.28;26.45;99766.97;5095368;28;19916;-64
2023/04/26 10:51:11;;;;;;;;;;;;;;;17.54;27.76;99775.38;5095771;28;19912;-63
2023/04/26 10:53:36;;;;;;;;;;;;;;;17.15;27.33;99768.19;5070989;28;19930;-62
2023/04/26 10:56:02;;;;;;;;;;;;;;;17.10;28.40;99772.75;5093999;28;19920;-62
2023/04/26 10:58:29;;;;;;;;;;;;;;;17.52;30.31;99774.81;5094769;28;20324;-62
2023/04/26 11:01:17;;;;;;;;;;;;;;;18.06;30.57;99777.47;5094875;28;19912;-64
2023/04/26 11:03:55;;;;;;;;;;;;;;;18.33;27.51;99773.84;5087808;28;19916;-63
2023/04/26 11:06:22;;;;;;;;;;;;;;;18.34;27.09;99783.66;5095242;28;19916;-63
2023/04/26 11:08:47;;;;;;;;;;;;;;;18.31;25.61;99782.31;5095163;28;19950;-63
2023/04/26 11:11:14;;;;;;;;;;;;;;;18.30;26.83;99782.56;5095392;28;19912;-63
2023/04/26 11:13:40;;;;;;;;;;;;;;;18.32;29.42;99788.53;5094470;28;19946;-63
2023/04/26 11:16:10;;;;;;;;;;;;;;;18.12;28.64;99783.78;5095002;28;19950;-63
2023/04/26 11:18:36;;;;;;;;;;;;;;;17.99;26.16;99790.47;5093965;28;20350;-63
2023/04/26 11:21:01;;;;;;;;;;;;;;;17.81;27.21;99783.47;5095512;28;19943;-63
2023/04/26 11:23:28;;;;;;;;;;;;;;;17.30;27.47;99785.72;5094771;28;19919;-62
2023/04/26 11:25:56;;;;;;;;;;;;;;;16.99;26.54;99782.63;5095329;28;19997;-63
2023/04/26 11:28:22;;;;;;;;;;;;;;;16.74;27.88;99799.41;5094851;28;20424;-63
2023/04/26 11:30:50;;;;;;;;;;;;;;;16.42;28.35;99800.03;5094972;28;19951;-64
2023/04/26 11:33:21;;;;;;;;;;;;;;;16.15;28.94;99805.31;5094252;28;19912;-62
2023/04/26 11:35:47;;;;;;;;;;;;;;;15.86;29.54;99803.50;5094650;28;19916;-63
2023/04/26 11:38:13;;;;;;;;;;;;;;;15.77;27.00;99802.25;5094731;28;20027;-64
2023/04/26 11:40:38;;;;;;;;;;;;;;;16.39;28.05;99800.53;5095070;28;20353;-64
2023/04/26 11:43:04;;;;;;;;;;;;;;;16.84;26.51;99794.13;5094758;28;19922;-64
2023/04/26 11:45:33;;;;;;;;;;;;;;;17.07;27.23;99787.63;5095263;28;20458;-63
2023/04/26 11:48:00;;;;;;;;;;;;;;;17.14;27.96;99790.13;5094700;28;19943;-64
2023/04/26 11:50:25;;;;;;;;;;;;;;;17.52;27.83;99791.09;5094724;28;20378;-63
2023/04/26 11:52:55;;;;;;;;;;;;;;;17.76;27.39;99786.19;5093240;28;19972;-63
2023/04/26 11:55:26;;;;;;;;;;;;;;;17.71;28.17;99786.13;5094004;28;19959;-62
2023/04/26 11:57:52;;;;;;;;;;;;;;;17.72;27.45;99787.78;5093180;28;19923;-63
2023/04/26 12:00:17;;;;;;;;;;;;;;;17.84;27.93;99784.88;5094989;28;19916;-64
2023/04/26 12:02:46;;;;;;;;;;;;;;;17.79;26.20;99780.22;5094538;28;19933;-63
2023/04/26 12:05:21;;;;;;;;;;;;;;;18.03;27.52;99783.44;5093535;28;19912;-63
2023/04/26 12:07:51;;;;;;;;;;;;;;;18.26;25.21;99784.97;5094616;28;19912;-64
2023/04/26 12:10:17;;;;;;;;;;;;;;;18.45;26.62;99792.72;5094145;28;20310;-63
2023/04/26 12:12:47;;;;;;;;;;;;;;;18.39;25.68;99791.88;5093228;28;19924;-63
2023/04/26 12:15:12;;;;;;;;;;;;;;;18.37;23.47;99789.41;5094202;28;19923;-64
2023/04/26 12:17:38;;;;;;;;;;;;;;;18.27;25.37;99789.31;5094583;28;19916;-63
2023/04/26 12:20:10;;;;;;;;;;;;;;;18.16;25.95;99796.59;5092665;28;20576;-63
2023/04/26 12:22:35;;;;;;;;;;;;;;;18.38;25.32;99796.47;5093907;28;19985;-63
2023/04/26 12:25:05;;;;;;;;;;;;;;;18.69;26.90;99791.22;5094103;28;20364;-63
2023/04/26 12:27:30;;;;;;;;;;;;;;;19.11;26.73;99792.22;5093025;28;20322;-63
2023/04/26 12:29:56;;;;;;;;;;;;;;;19.38;26.13;99793.97;5094768;28;19920;-62
2023/04/26 12:32:21;;;;;;;;;;;;;;;19.56;28.04;99789.91;5094446;28;19971;-63
2023/04/26 12:34:47;;;;;;;;;;;;;;;19.64;27.51;99782.00;5094882;28;19961;-62
2023/04/26 12:37:12;;;;;;;;;;;;;;;19.75;25.13;99782.06;5093639;28;19916;-63
2023/04/26 12:39:37;;;;;;;;;;;;;;;19.78;24.30;99787.81;5094658;28;19962;-63
2023/04/26 12:42:03;;;;;;;;;;;;;;;19.85;23.55;99795.69;5094379;28;20447;-64
2023/04/26 12:44:28;;;;;;;;;;;;;;;19.88;25.45;99785.06;5094331;28;19958;-64
2023/04/26 12:46:53;;;;;;;;;;;;;;;20.20;25.09;99789.41;5094047;28;20356;-64